createdAt,value
2018-10-17T00:00:00.256Z,82.88
2018-10-17T00:01:00.323Z,83.29
2018-10-17T00:02:00.234Z,83.15
2018-10-17T00:03:00.212Z,84.00
2018-10-17T00:04:00.266Z,84.00
2018-10-17T00:05:00.259Z,84.11
2018-10-17T00:06:00.174Z,83.65
2018-10-17T00:07:00.216Z,84.51
2018-10-17T00:08:00.164Z,84.27
2018-10-17T00:09:00.152Z,83.76
2018-10-17T00:10:00.162Z,83.04
2018-10-17T00:11:00.232Z,83.35
2018-10-17T00:12:00.122Z,82.94
2018-10-17T00:13:00.129Z,83.04
2018-10-17T00:14:00.102Z,83.15
2018-10-17T00:15:00.085Z,82.98
2018-10-17T00:16:00.065Z,82.74
2018-10-17T00:17:00.164Z,83.56
2018-10-17T00:18:00.104Z,83.49
2018-10-17T00:19:00.098Z,83.02
2018-10-17T00:20:00.027Z,82.92
2018-10-17T00:21:00.010Z,83.02
2018-10-17T00:22:00.001Z,83.57
2018-10-17T00:23:00.080Z,83.43
2018-10-17T00:24:00.004Z,83.12
2018-10-17T00:25:00.038Z,83.57
2018-10-17T00:25:59.963Z,84.04
2018-10-17T00:26:59.965Z,83.67
2018-10-17T00:27:59.951Z,83.47
2018-10-17T00:29:00.052Z,83.87
2018-10-17T00:29:59.909Z,83.87
2018-10-17T00:30:59.955Z,84.28
2018-10-17T00:31:59.890Z,83.98
2018-10-17T00:32:59.875Z,84.69
2018-10-17T00:33:59.868Z,84.08
2018-10-17T00:34:59.951Z,84.59
2018-10-17T00:35:59.843Z,84.18
2018-10-17T00:36:59.950Z,84.08
2018-10-17T00:37:59.830Z,84.08
2018-10-17T00:38:59.832Z,84.18
2018-10-17T00:39:59.813Z,84.69
2018-10-17T00:40:59.882Z,84.69
2018-10-17T00:41:59.787Z,84.74
2018-10-17T00:42:59.896Z,84.94
2018-10-17T00:43:59.795Z,84.63
2018-10-17T00:44:59.777Z,84.63
2018-10-17T00:45:59.749Z,84.53
2018-10-17T00:46:59.849Z,84.42
2018-10-17T00:47:59.738Z,84.94
2018-10-17T00:48:59.727Z,84.94
2018-10-17T00:49:59.699Z,85.24
2018-10-17T00:50:59.727Z,85.24
2018-10-17T00:51:59.671Z,85.59
2018-10-17T00:52:59.783Z,85.79
2018-10-17T00:53:59.657Z,85.75
2018-10-17T00:54:59.685Z,85.75
2018-10-17T00:55:59.618Z,85.96
2018-10-17T00:56:59.618Z,86.06
2018-10-17T00:57:59.605Z,85.86
2018-10-17T00:58:59.670Z,86.26
2018-10-17T00:59:59.583Z,86.06
2018-10-17T01:00:59.609Z,85.96
2018-10-17T01:01:59.594Z,85.75
2018-10-17T01:02:59.551Z,85.75
2018-10-17T01:03:59.543Z,85.10
2018-10-17T01:04:59.580Z,85.51
2018-10-17T01:05:59.515Z,85.00
2018-10-17T01:06:59.516Z,85.41
2018-10-17T01:07:59.501Z,85.30
2018-10-17T01:08:59.481Z,85.71
2018-10-17T01:09:59.471Z,85.71
2018-10-17T01:10:59.608Z,85.30
2018-10-17T01:11:59.455Z,85.41
2018-10-17T01:12:59.521Z,85.21
2018-10-17T01:13:59.442Z,85.47
2018-10-17T01:14:59.410Z,85.10
2018-10-17T01:15:59.397Z,85.10
2018-10-17T01:16:59.504Z,84.96
2018-10-17T01:17:59.380Z,85.27
2018-10-17T01:18:59.421Z,85.27
2018-10-17T01:19:59.353Z,84.66
2018-10-17T01:20:59.380Z,84.86
2018-10-17T01:21:59.337Z,84.66
2018-10-17T01:22:59.370Z,84.34
2018-10-17T01:23:59.319Z,84.66
2018-10-17T01:24:59.352Z,84.45
2018-10-17T01:25:59.287Z,84.45
2018-10-17T01:26:59.280Z,84.55
2018-10-17T01:27:59.278Z,85.06
2018-10-17T01:28:59.329Z,84.75
2018-10-17T01:29:59.259Z,84.14
2018-10-17T01:30:59.267Z,84.90
2018-10-17T01:31:59.231Z,84.49
2018-10-17T01:32:59.212Z,84.59
2018-10-17T01:33:59.205Z,85.41
2018-10-17T01:34:59.280Z,85.61
2018-10-17T01:35:59.173Z,85.51
2018-10-17T01:36:59.177Z,85.41
2018-10-17T01:37:59.206Z,85.41
2018-10-17T01:38:59.151Z,85.51
2018-10-17T01:39:59.134Z,85.82
2018-10-17T01:40:59.245Z,86.43
2018-10-17T01:41:59.119Z,85.92
2018-10-17T01:42:59.174Z,86.02
2018-10-17T01:43:59.129Z,86.12
2018-10-17T01:44:59.091Z,85.88
2018-10-17T01:45:59.094Z,85.98
2018-10-17T01:46:59.140Z,85.68
2018-10-17T01:47:59.070Z,85.47
2018-10-17T01:48:59.086Z,85.27
2018-10-17T01:49:59.019Z,85.16
2018-10-17T01:50:59.026Z,85.27
2018-10-17T01:51:59.013Z,85.41
2018-10-17T01:52:59.094Z,85.47
2018-10-17T01:53:58.998Z,85.27
2018-10-17T01:54:59.014Z,85.30
2018-10-17T01:55:58.987Z,85.30
2018-10-17T01:56:58.946Z,84.90
2018-10-17T01:57:58.949Z,84.90
2018-10-17T01:58:58.993Z,84.69
2018-10-17T01:59:58.915Z,84.80
2018-10-17T02:00:58.910Z,85.21
2018-10-17T02:01:58.895Z,85.30
2018-10-17T02:02:58.876Z,85.41
2018-10-17T02:03:58.869Z,85.30
2018-10-17T02:04:58.932Z,85.21
2018-10-17T02:05:58.853Z,85.21
2018-10-17T02:06:58.884Z,85.41
2018-10-17T02:07:58.821Z,85.41
2018-10-17T02:08:58.812Z,85.30
2018-10-17T02:09:58.802Z,85.14
2018-10-17T02:10:58.887Z,85.55
2018-10-17T02:11:58.788Z,85.24
2018-10-17T02:12:58.801Z,85.65
2018-10-17T02:13:58.756Z,85.65
2018-10-17T02:14:58.742Z,86.26
2018-10-17T02:15:58.734Z,85.75
2018-10-17T02:16:58.793Z,85.45
2018-10-17T02:17:58.763Z,86.16
2018-10-17T02:18:58.712Z,86.10
2018-10-17T02:19:58.695Z,85.69
2018-10-17T02:20:58.684Z,86.00
2018-10-17T02:21:58.732Z,86.10
2018-10-17T02:22:58.810Z,86.51
2018-10-17T02:23:58.652Z,85.89
2018-10-17T02:24:58.701Z,86.61
2018-10-17T02:25:58.625Z,86.00
2018-10-17T02:26:58.663Z,85.89
2018-10-17T02:27:58.623Z,86.10
2018-10-17T02:28:58.647Z,86.20
2018-10-17T02:29:58.700Z,86.10
2018-10-17T02:30:58.674Z,85.89
2018-10-17T02:31:58.569Z,87.23
2018-10-17T02:32:58.556Z,86.41
2018-10-17T02:33:58.537Z,85.79
2018-10-17T02:34:58.605Z,86.71
2018-10-17T02:35:58.524Z,86.41
2018-10-17T02:36:58.536Z,86.20
2018-10-17T02:37:58.492Z,85.89
2018-10-17T02:38:58.484Z,86.14
2018-10-17T02:39:58.473Z,86.04
2018-10-17T02:40:58.537Z,85.94
2018-10-17T02:41:58.478Z,85.94
2018-10-17T02:42:58.512Z,85.83
2018-10-17T02:43:58.435Z,86.14
2018-10-17T02:44:58.435Z,86.65
2018-10-17T02:45:58.405Z,86.14
2018-10-17T02:46:58.488Z,86.65
2018-10-17T02:47:58.387Z,86.35
2018-10-17T02:48:58.395Z,86.65
2018-10-17T02:49:58.369Z,86.35
2018-10-17T02:50:58.350Z,87.77
2018-10-17T02:51:58.333Z,86.85
2018-10-17T02:52:58.372Z,87.37
2018-10-17T02:53:58.334Z,86.90
2018-10-17T02:54:58.382Z,86.65
2018-10-17T02:55:58.311Z,86.76
2018-10-17T02:56:58.284Z,86.44
2018-10-17T02:57:58.289Z,86.14
2018-10-17T02:58:58.333Z,85.83
2018-10-17T02:59:58.257Z,86.14
2018-10-17T03:00:58.262Z,86.04
2018-10-17T03:01:58.232Z,86.18
2018-10-17T03:02:58.232Z,86.14
2018-10-17T03:03:58.264Z,85.94
2018-10-17T03:04:58.266Z,85.94
2018-10-17T03:05:58.188Z,86.29
2018-10-17T03:06:58.264Z,86.85
2018-10-17T03:07:58.161Z,86.44
2018-10-17T03:08:58.151Z,86.38
2018-10-17T03:09:58.176Z,86.55
2018-10-17T03:10:58.185Z,86.76
2018-10-17T03:11:58.116Z,86.96
2018-10-17T03:12:58.133Z,87.16
2018-10-17T03:13:58.193Z,86.44
2018-10-17T03:14:58.098Z,86.44
2018-10-17T03:15:58.088Z,86.35
2018-10-17T03:16:58.111Z,85.83
2018-10-17T03:17:58.057Z,86.24
2018-10-17T03:18:58.162Z,86.04
2018-10-17T03:19:58.042Z,86.18
2018-10-17T03:20:58.022Z,86.18
2018-10-17T03:21:58.013Z,85.94
2018-10-17T03:22:58.088Z,86.08
2018-10-17T03:23:58.019Z,86.24
2018-10-17T03:24:57.988Z,86.04
2018-10-17T03:25:57.962Z,86.08
2018-10-17T03:26:57.967Z,85.97
2018-10-17T03:27:58.009Z,85.88
2018-10-17T03:28:58.023Z,86.49
2018-10-17T03:29:57.917Z,86.59
2018-10-17T03:30:58.047Z,86.08
2018-10-17T03:31:57.919Z,86.29
2018-10-17T03:32:57.910Z,86.08
2018-10-17T03:33:57.881Z,85.97
2018-10-17T03:34:57.957Z,86.49
2018-10-17T03:35:57.967Z,85.97
2018-10-17T03:36:57.925Z,86.18
2018-10-17T03:37:57.867Z,85.88
2018-10-17T03:38:57.832Z,85.88
2018-10-17T03:39:57.811Z,85.77
2018-10-17T03:40:57.862Z,85.97
2018-10-17T03:41:57.795Z,85.88
2018-10-17T03:42:57.812Z,85.97
2018-10-17T03:43:57.769Z,86.18
2018-10-17T03:44:57.785Z,86.32
2018-10-17T03:45:57.750Z,86.02
2018-10-17T03:46:57.811Z,86.12
2018-10-17T03:47:57.758Z,86.02
2018-10-17T03:48:57.776Z,86.32
2018-10-17T03:49:57.733Z,86.02
2018-10-17T03:50:57.743Z,86.22
2018-10-17T03:51:57.687Z,86.83
2018-10-17T03:52:57.708Z,86.73
2018-10-17T03:53:57.656Z,86.73
2018-10-17T03:54:57.680Z,86.43
2018-10-17T03:55:57.642Z,87.14
2018-10-17T03:56:57.638Z,87.65
2018-10-17T03:57:57.611Z,87.24
2018-10-17T03:58:57.698Z,87.76
2018-10-17T03:59:57.586Z,87.65
2018-10-17T04:00:57.736Z,87.24
2018-10-17T04:01:57.586Z,87.90
2018-10-17T04:02:57.622Z,86.83
2018-10-17T04:03:57.573Z,86.73
2018-10-17T04:04:57.680Z,86.73
2018-10-17T04:05:57.525Z,86.88
2018-10-17T04:06:57.563Z,86.77
2018-10-17T04:07:57.518Z,86.73
2018-10-17T04:08:57.547Z,87.08
2018-10-17T04:09:57.482Z,87.29
2018-10-17T04:10:57.563Z,87.38
2018-10-17T04:11:57.459Z,86.98
2018-10-17T04:12:57.512Z,86.94
2018-10-17T04:13:57.465Z,87.49
2018-10-17T04:14:57.433Z,87.49
2018-10-17T04:15:57.433Z,87.59
2018-10-17T04:16:57.499Z,87.18
2018-10-17T04:17:57.407Z,88.20
2018-10-17T04:18:57.481Z,89.09
2018-10-17T04:19:57.361Z,89.12
2018-10-17T04:20:57.351Z,89.33
2018-10-17T04:21:57.359Z,87.85
2018-10-17T04:22:57.406Z,89.33
2018-10-17T04:23:57.321Z,88.88
2018-10-17T04:24:57.324Z,89.33
2018-10-17T04:25:57.312Z,88.26
2018-10-17T04:26:57.304Z,88.47
2018-10-17T04:27:57.298Z,88.26
2018-10-17T04:28:57.400Z,88.37
2018-10-17T04:29:57.263Z,87.96
2018-10-17T04:30:57.257Z,87.85
2018-10-17T04:31:57.229Z,87.55
2018-10-17T04:32:57.218Z,87.45
2018-10-17T04:33:57.213Z,87.65
2018-10-17T04:34:57.376Z,86.77
2018-10-17T04:35:57.190Z,87.65
2018-10-17T04:36:57.211Z,87.90
2018-10-17T04:37:57.192Z,87.59
2018-10-17T04:38:57.183Z,87.45
2018-10-17T04:39:57.137Z,86.63
2018-10-17T04:40:57.265Z,86.36
2018-10-17T04:41:57.117Z,87.04
2018-10-17T04:42:57.215Z,86.67
2018-10-17T04:43:57.101Z,87.79
2018-10-17T04:44:57.100Z,87.79
2018-10-17T04:45:57.080Z,87.59
2018-10-17T04:46:57.141Z,87.70
2018-10-17T04:47:57.127Z,87.59
2018-10-17T04:48:57.075Z,88.10
2018-10-17T04:49:57.072Z,88.00
2018-10-17T04:50:57.019Z,87.59
2018-10-17T04:51:57.006Z,87.84
2018-10-17T04:52:57.046Z,87.94
2018-10-17T04:53:57.021Z,88.04
2018-10-17T04:54:57.036Z,87.84
2018-10-17T04:55:56.973Z,88.14
2018-10-17T04:56:56.975Z,88.56
2018-10-17T04:57:56.951Z,88.41
2018-10-17T04:58:57.026Z,87.63
2018-10-17T04:59:56.923Z,87.32
2018-10-17T05:00:56.966Z,87.84
2018-10-17T05:01:56.903Z,87.63
2018-10-17T05:02:56.886Z,87.53
2018-10-17T05:03:56.878Z,87.32
2018-10-17T05:04:56.951Z,87.43
2018-10-17T05:05:56.857Z,87.43
2018-10-17T05:06:56.918Z,87.94
2018-10-17T05:07:56.853Z,87.53
2018-10-17T05:08:56.821Z,87.43
2018-10-17T05:09:56.811Z,87.63
2018-10-17T05:10:56.878Z,87.53
2018-10-17T05:11:56.791Z,87.53
2018-10-17T05:12:56.785Z,87.84
2018-10-17T05:13:56.773Z,88.65
2018-10-17T05:14:56.752Z,88.56
2018-10-17T05:15:56.743Z,89.17
2018-10-17T05:16:56.847Z,89.27
2018-10-17T05:17:56.723Z,89.06
2018-10-17T05:18:56.737Z,89.37
2018-10-17T05:19:56.718Z,89.37
2018-10-17T05:20:56.692Z,88.14
2018-10-17T05:21:56.675Z,88.35
2018-10-17T05:22:56.723Z,89.37
2018-10-17T05:23:56.657Z,89.06
2018-10-17T05:24:56.705Z,88.65
2018-10-17T05:25:56.650Z,88.45
2018-10-17T05:26:56.641Z,88.14
2018-10-17T05:27:56.615Z,88.35
2018-10-17T05:28:56.722Z,88.82
2018-10-17T05:29:56.737Z,89.58
2018-10-17T05:30:56.612Z,89.33
2018-10-17T05:31:56.579Z,88.86
2018-10-17T05:32:56.557Z,88.65
2018-10-17T05:33:56.550Z,88.51
2018-10-17T05:34:56.639Z,88.51
2018-10-17T05:35:56.531Z,88.14
2018-10-17T05:36:56.626Z,88.24
2018-10-17T05:37:56.503Z,89.33
2018-10-17T05:38:56.490Z,89.37
2018-10-17T05:39:56.477Z,89.33
2018-10-17T05:40:56.560Z,89.12
2018-10-17T05:41:56.466Z,89.23
2018-10-17T05:42:56.505Z,88.92
2018-10-17T05:43:56.433Z,89.33
2018-10-17T05:44:56.436Z,89.03
2018-10-17T05:45:56.408Z,88.82
2018-10-17T05:46:56.451Z,89.23
2018-10-17T05:47:56.404Z,89.12
2018-10-17T05:48:56.380Z,89.12
2018-10-17T05:49:56.372Z,89.03
2018-10-17T05:50:56.353Z,88.51
2018-10-17T05:51:56.349Z,89.43
2018-10-17T05:52:56.384Z,87.90
2018-10-17T05:53:56.328Z,89.33
2018-10-17T05:54:56.338Z,89.33
2018-10-17T05:55:56.318Z,89.12
2018-10-17T05:56:56.286Z,89.12
2018-10-17T05:57:56.277Z,89.33
2018-10-17T05:58:56.344Z,89.03
2018-10-17T05:59:56.377Z,89.12
2018-10-17T06:00:56.271Z,89.03
2018-10-17T06:01:56.257Z,89.12
2018-10-17T06:02:56.233Z,89.12
2018-10-17T06:03:56.209Z,89.12
2018-10-17T06:04:56.697Z,89.23
2018-10-17T06:05:56.232Z,89.23
2018-10-17T06:06:56.224Z,89.33
2018-10-17T06:07:56.163Z,89.27
2018-10-17T06:08:56.168Z,89.43
2018-10-17T06:09:56.143Z,89.03
2018-10-17T06:10:56.281Z,89.03
2018-10-17T06:11:56.185Z,89.23
2018-10-17T06:12:56.171Z,89.17
2018-10-17T06:13:56.143Z,89.17
2018-10-17T06:14:56.085Z,89.43
2018-10-17T06:15:56.097Z,89.47
2018-10-17T06:16:56.161Z,89.33
2018-10-17T06:17:56.052Z,89.06
2018-10-17T06:18:56.079Z,89.03
2018-10-17T06:19:56.038Z,89.12
2018-10-17T06:20:56.023Z,89.12
2018-10-17T06:21:56.013Z,89.33
2018-10-17T06:22:56.088Z,89.74
2018-10-17T06:23:56.001Z,89.84
2018-10-17T06:24:55.991Z,89.74
2018-10-17T06:25:55.972Z,90.05
2018-10-17T06:26:55.957Z,89.84
2018-10-17T06:27:55.946Z,89.74
2018-10-17T06:28:56.023Z,89.53
2018-10-17T06:29:55.950Z,89.43
2018-10-17T06:30:55.919Z,89.12
2018-10-17T06:31:55.896Z,89.64
2018-10-17T06:32:55.887Z,89.53
2018-10-17T06:33:56.166Z,88.98
2018-10-17T06:34:55.957Z,89.29
2018-10-17T06:35:55.868Z,89.29
2018-10-17T06:36:55.926Z,89.29
2018-10-17T06:37:55.830Z,88.68
2018-10-17T06:38:55.818Z,88.17
2018-10-17T06:39:55.816Z,88.47
2018-10-17T06:40:55.862Z,87.65
2018-10-17T06:41:55.800Z,88.47
2018-10-17T06:42:55.828Z,88.26
2018-10-17T06:43:55.800Z,89.29
2018-10-17T06:44:55.757Z,88.06
2018-10-17T06:45:55.742Z,88.43
2018-10-17T06:46:55.810Z,88.17
2018-10-17T06:47:55.782Z,87.71
2018-10-17T06:48:55.723Z,87.92
2018-10-17T06:49:55.700Z,88.02
2018-10-17T06:50:55.691Z,87.41
2018-10-17T06:51:55.681Z,87.61
2018-10-17T06:52:55.707Z,87.20
2018-10-17T06:53:55.748Z,87.41
2018-10-17T06:54:55.695Z,87.00
2018-10-17T06:55:55.635Z,87.37
2018-10-17T06:56:55.669Z,87.26
2018-10-17T06:57:55.618Z,86.96
2018-10-17T06:58:55.668Z,87.37
2018-10-17T06:59:55.609Z,86.44
2018-10-17T07:00:55.580Z,86.85
2018-10-17T07:01:55.671Z,87.67
2018-10-17T07:02:55.555Z,87.67
2018-10-17T07:03:55.554Z,87.73
2018-10-17T07:04:55.584Z,86.71
2018-10-17T07:05:55.543Z,85.89
2018-10-17T07:06:55.538Z,85.89
2018-10-17T07:07:55.501Z,85.89
2018-10-17T07:08:55.495Z,86.71
2018-10-17T07:09:55.484Z,87.53
2018-10-17T07:10:55.513Z,87.53
2018-10-17T07:11:55.476Z,87.32
2018-10-17T07:12:55.493Z,86.71
2018-10-17T07:13:55.441Z,85.89
2018-10-17T07:14:55.426Z,86.71
2018-10-17T07:15:55.484Z,87.23
2018-10-17T07:16:55.479Z,87.70
2018-10-17T07:17:55.417Z,87.38
2018-10-17T07:18:55.416Z,87.18
2018-10-17T07:19:55.366Z,86.57
2018-10-17T07:20:55.357Z,86.06
2018-10-17T07:21:55.348Z,85.75
2018-10-17T07:22:55.415Z,86.02
2018-10-17T07:23:55.329Z,85.92
2018-10-17T07:24:55.375Z,86.43
2018-10-17T07:25:55.298Z,86.43
2018-10-17T07:26:55.292Z,86.43
2018-10-17T07:27:55.279Z,86.43
2018-10-17T07:28:55.450Z,85.92
2018-10-17T07:29:55.376Z,85.88
2018-10-17T07:30:55.287Z,86.39
2018-10-17T07:31:55.235Z,86.59
2018-10-17T07:32:55.224Z,86.39
2018-10-17T07:33:55.222Z,85.88
2018-10-17T07:34:55.233Z,85.77
2018-10-17T07:35:55.204Z,85.74
2018-10-17T07:36:55.177Z,85.63
2018-10-17T07:37:55.181Z,86.04
2018-10-17T07:38:55.160Z,86.04
2018-10-17T07:39:55.146Z,85.90
2018-10-17T07:40:55.174Z,86.30
2018-10-17T07:41:55.150Z,85.69
2018-10-17T07:42:55.115Z,85.69
2018-10-17T07:43:55.098Z,85.60
2018-10-17T07:44:55.096Z,85.55
2018-10-17T07:45:55.076Z,85.55
2018-10-17T07:46:55.116Z,85.45
2018-10-17T07:47:55.148Z,85.82
2018-10-17T07:48:55.043Z,86.33
2018-10-17T07:49:55.031Z,85.72
2018-10-17T07:50:55.026Z,85.51
2018-10-17T07:51:55.011Z,85.47
2018-10-17T07:52:55.072Z,84.97
2018-10-17T07:53:55.035Z,84.56
2018-10-17T07:54:54.972Z,84.72
2018-10-17T07:55:54.962Z,84.62
2018-10-17T07:56:54.953Z,84.21
2018-10-17T07:57:54.944Z,83.60
2018-10-17T07:58:54.967Z,83.29
2018-10-17T07:59:54.993Z,83.70
2018-10-17T08:00:54.908Z,83.06
2018-10-17T08:01:54.893Z,82.92
2018-10-17T08:02:54.881Z,82.31
2018-10-17T08:03:54.869Z,82.40
2018-10-17T08:04:54.903Z,82.51
2018-10-17T08:05:54.917Z,82.87
2018-10-17T08:06:54.840Z,82.47
2018-10-17T08:07:54.824Z,82.37
2018-10-17T08:08:54.812Z,81.21
2018-10-17T08:09:54.801Z,81.52
2018-10-17T08:10:54.992Z,81.72
2018-10-17T08:11:54.860Z,81.11
2018-10-17T08:12:54.781Z,80.40
2018-10-17T08:13:54.787Z,80.30
2018-10-17T08:14:54.746Z,79.90
2018-10-17T08:15:54.740Z,79.45
2018-10-17T08:16:54.775Z,79.04
2018-10-17T08:17:54.766Z,79.04
2018-10-17T08:18:54.706Z,78.44
2018-10-17T08:19:54.693Z,78.33
2018-10-17T08:20:54.682Z,78.09
2018-10-17T08:21:54.672Z,78.09
2018-10-17T08:22:54.695Z,78.16
2018-10-17T08:23:54.684Z,77.55
2018-10-17T08:24:54.636Z,77.95
2018-10-17T08:25:54.636Z,77.45
2018-10-17T08:26:54.613Z,76.20
2018-10-17T08:27:54.602Z,76.90
2018-10-17T08:28:54.639Z,75.59
2018-10-17T08:29:54.677Z,75.89
2018-10-17T08:30:54.575Z,75.08
2018-10-17T08:31:54.562Z,74.77
2018-10-17T08:32:54.562Z,74.54
2018-10-17T08:33:54.543Z,74.04
2018-10-17T08:34:54.563Z,73.83
2018-10-17T08:35:54.776Z,73.90
2018-10-17T08:36:54.682Z,73.90
2018-10-17T08:37:54.812Z,73.80
2018-10-17T08:38:54.483Z,73.19
2018-10-17T08:39:54.490Z,72.38
2018-10-17T08:40:54.533Z,72.28
2018-10-17T08:41:54.485Z,72.08
2018-10-17T08:42:54.437Z,71.53
2018-10-17T08:43:54.431Z,71.13
2018-10-17T08:44:54.450Z,71.44
2018-10-17T08:45:54.404Z,70.52
2018-10-17T08:46:54.442Z,70.69
2018-10-17T08:47:54.400Z,70.09
2018-10-17T08:48:54.369Z,70.89
2018-10-17T08:49:54.373Z,70.29
2018-10-17T08:50:54.385Z,69.27
2018-10-17T08:51:54.335Z,68.43
2018-10-17T08:52:54.360Z,68.54
2018-10-17T08:53:54.330Z,68.74
2018-10-17T08:54:54.301Z,69.55
2018-10-17T08:55:54.327Z,68.91
2018-10-17T08:57:01.828Z,68.20
2018-10-17T08:58:03.134Z,68.00
2018-10-17T08:58:54.260Z,67.19
2018-10-17T08:59:54.245Z,67.29
2018-10-17T09:00:54.239Z,67.09
2018-10-17T09:01:54.232Z,67.80
2018-10-17T09:02:54.213Z,67.26
2018-10-17T09:03:54.252Z,67.06
2018-10-17T09:04:54.195Z,67.06
2018-10-17T09:05:54.250Z,66.86
2018-10-17T09:06:54.172Z,66.86
2018-10-17T09:07:54.280Z,67.93
2018-10-17T09:08:54.161Z,67.43
2018-10-17T09:09:54.176Z,67.80
2018-10-17T09:10:54.129Z,67.40
2018-10-17T09:11:54.119Z,66.89
2018-10-17T09:12:54.103Z,67.30
2018-10-17T09:13:54.130Z,65.99
2018-10-17T09:14:54.078Z,66.16
2018-10-17T09:15:54.123Z,65.95
2018-10-17T09:16:54.055Z,66.05
2018-10-17T09:17:54.047Z,65.55
2018-10-17T09:18:54.034Z,65.15
2018-10-17T09:19:54.337Z,65.22
2018-10-17T09:20:54.411Z,64.92
2018-10-17T09:21:54.271Z,63.81
2018-10-17T09:22:53.991Z,63.78
2018-10-17T09:23:54.000Z,63.57
2018-10-17T09:24:53.990Z,62.97
2018-10-17T09:25:53.970Z,63.17
2018-10-17T09:26:53.943Z,64.38
2018-10-17T09:27:54.016Z,64.69
2018-10-17T09:28:53.926Z,63.67
2018-10-17T09:29:53.953Z,62.77
2018-10-17T09:30:53.904Z,63.04
2018-10-17T09:31:53.894Z,63.75
2018-10-17T09:32:53.876Z,63.75
2018-10-17T09:33:53.908Z,62.74
2018-10-17T09:34:53.863Z,63.24
2018-10-17T09:35:53.871Z,63.31
2018-10-17T09:36:53.833Z,62.91
2018-10-17T09:37:53.836Z,63.01
2018-10-17T09:38:53.807Z,61.80
2018-10-17T09:39:53.961Z,62.68
2018-10-17T09:40:53.785Z,62.58
2018-10-17T09:41:53.781Z,62.18
2018-10-17T09:42:53.768Z,61.57
2018-10-17T09:43:53.777Z,62.18
2018-10-17T09:44:53.743Z,61.87
2018-10-17T09:45:53.811Z,61.24
2018-10-17T09:46:53.720Z,61.74
2018-10-17T09:47:53.725Z,60.44
2018-10-17T09:48:53.697Z,61.04
2018-10-17T09:49:53.706Z,61.04
2018-10-17T09:50:53.674Z,60.44
2018-10-17T09:51:53.783Z,61.54
2018-10-17T09:52:53.650Z,62.24
2018-10-17T09:53:53.649Z,62.24
2018-10-17T09:54:53.632Z,62.75
2018-10-17T09:55:53.623Z,64.53
2018-10-17T09:56:53.625Z,64.53
2018-10-17T09:57:53.639Z,64.63
2018-10-17T09:58:53.586Z,63.73
2018-10-17T09:59:53.617Z,64.23
2018-10-17T10:00:53.562Z,65.84
2018-10-17T10:01:53.557Z,63.93
2018-10-17T10:02:53.560Z,63.53
2018-10-17T10:03:53.608Z,64.23
2018-10-17T10:04:53.516Z,64.43
2018-10-17T10:05:53.522Z,64.50
2018-10-17T10:06:53.494Z,64.40
2018-10-17T10:07:53.484Z,63.90
2018-10-17T10:08:53.484Z,63.49
2018-10-17T10:09:53.516Z,64.67
2018-10-17T10:10:53.518Z,63.46
2018-10-17T10:11:53.477Z,63.17
2018-10-17T10:12:53.427Z,64.60
2018-10-17T10:13:53.416Z,63.19
2018-10-17T10:14:53.414Z,62.99
2018-10-17T10:15:53.470Z,62.96
2018-10-17T10:16:53.408Z,62.46
2018-10-17T10:17:53.374Z,62.16
2018-10-17T10:18:53.363Z,62.16
2018-10-17T10:19:53.356Z,61.46
2018-10-17T10:20:53.356Z,61.63
2018-10-17T10:21:53.374Z,62.43
2018-10-17T10:22:53.382Z,61.43
2018-10-17T10:23:53.317Z,60.62
2018-10-17T10:24:53.470Z,60.60
2018-10-17T10:25:53.293Z,60.60
2018-10-17T10:26:53.286Z,59.69
2018-10-17T10:27:53.420Z,59.79
2018-10-17T10:28:53.252Z,59.49
2018-10-17T10:29:53.336Z,58.76
2018-10-17T10:30:53.232Z,59.39
2018-10-17T10:31:53.226Z,58.76
2018-10-17T10:32:53.224Z,59.06
2018-10-17T10:33:53.238Z,58.66
2018-10-17T10:34:53.187Z,58.86
2018-10-17T10:35:53.235Z,57.66
2018-10-17T10:36:53.166Z,57.76
2018-10-17T10:37:53.159Z,57.66
2018-10-17T10:38:53.156Z,57.76
2018-10-17T10:39:53.227Z,56.56
2018-10-17T10:40:53.122Z,57.53
2018-10-17T10:41:53.124Z,58.73
2018-10-17T10:42:53.106Z,58.43
2018-10-17T10:43:53.108Z,57.43
2018-10-17T10:44:53.152Z,58.83
2018-10-17T10:45:53.223Z,58.94
2018-10-17T10:46:53.061Z,60.14
2018-10-17T10:47:53.090Z,59.03
2018-10-17T10:48:53.057Z,59.33
2018-10-17T10:49:53.052Z,59.03
2018-10-17T10:50:53.034Z,58.94
2018-10-17T10:51:53.065Z,58.43
2018-10-17T10:52:53.107Z,58.40
2018-10-17T10:53:52.988Z,58.91
2018-10-17T10:54:52.980Z,57.20
2018-10-17T10:55:52.980Z,57.60
2018-10-17T10:56:53.006Z,56.10
2018-10-17T10:57:53.007Z,57.10
2018-10-17T10:58:52.984Z,56.87
2018-10-17T10:59:52.929Z,56.87
2018-10-17T11:00:52.913Z,57.17
2018-10-17T11:01:52.897Z,56.27
2018-10-17T11:02:52.898Z,56.48
2018-10-17T11:03:52.913Z,56.37
2018-10-17T11:04:52.888Z,55.94
2018-10-17T11:05:52.849Z,55.44
2018-10-17T11:06:52.837Z,55.85
2018-10-17T11:07:52.895Z,55.74
2018-10-17T11:08:52.816Z,55.35
2018-10-17T11:09:52.850Z,54.94
2018-10-17T11:10:52.842Z,55.42
2018-10-17T11:11:52.786Z,54.92
2018-10-17T11:12:52.773Z,55.42
2018-10-17T11:13:52.780Z,55.02
2018-10-17T11:14:52.910Z,53.32
2018-10-17T11:15:52.777Z,54.12
2018-10-17T11:16:52.773Z,54.02
2018-10-17T11:17:52.718Z,54.82
2018-10-17T11:18:52.705Z,54.42
2018-10-17T11:19:52.698Z,54.12
2018-10-17T11:20:52.736Z,52.82
2018-10-17T11:21:52.748Z,52.12
2018-10-17T11:22:52.700Z,53.72
2018-10-17T11:23:52.652Z,53.12
2018-10-17T11:24:52.637Z,53.89
2018-10-17T11:25:52.633Z,53.69
2018-10-17T11:26:52.628Z,55.22
2018-10-17T11:27:52.643Z,54.99
2018-10-17T11:28:52.647Z,54.90
2018-10-17T11:29:52.585Z,54.19
2018-10-17T11:30:52.578Z,53.37
2018-10-17T11:31:52.597Z,53.77
2018-10-17T11:32:52.606Z,53.17
2018-10-17T11:33:52.586Z,52.07
2018-10-17T11:34:52.538Z,52.07
2018-10-17T11:35:52.532Z,51.47
2018-10-17T11:36:52.509Z,51.97
2018-10-17T11:37:52.556Z,52.67
2018-10-17T11:38:52.502Z,51.27
2018-10-17T11:39:52.725Z,51.07
2018-10-17T11:40:52.469Z,48.67
2018-10-17T11:41:52.451Z,49.47
2018-10-17T11:42:52.446Z,49.17
2018-10-17T11:43:52.426Z,49.95
2018-10-17T11:44:52.460Z,50.27
2018-10-17T11:45:52.440Z,50.95
2018-10-17T11:46:52.452Z,51.64
2018-10-17T11:47:52.451Z,51.15
2018-10-17T11:48:52.377Z,50.42
2018-10-17T11:49:52.356Z,50.42
2018-10-17T11:50:52.382Z,50.32
2018-10-17T11:51:52.370Z,50.52
2018-10-17T11:52:52.394Z,50.42
2018-10-17T11:53:52.316Z,49.82
2018-10-17T11:54:52.311Z,49.30
2018-10-17T11:55:52.305Z,49.00
2018-10-17T11:56:52.292Z,49.30
2018-10-17T11:57:52.312Z,48.90
2018-10-17T11:58:52.262Z,48.58
2018-10-17T11:59:52.249Z,48.48
2018-10-17T12:00:52.255Z,48.18
2018-10-17T12:01:52.226Z,47.96
2018-10-17T12:02:52.241Z,47.93
2018-10-17T12:03:52.498Z,47.21
2018-10-17T12:04:52.361Z,46.61
2018-10-17T12:05:52.315Z,46.79
2018-10-17T12:06:52.188Z,46.49
2018-10-17T12:07:52.159Z,45.97
2018-10-17T12:08:52.185Z,44.96
2018-10-17T12:09:52.175Z,44.74
2018-10-17T12:10:52.135Z,45.01
2018-10-17T12:11:52.183Z,44.71
2018-10-17T12:12:52.133Z,45.01
2018-10-17T12:13:52.093Z,44.89
2018-10-17T12:14:52.126Z,44.79
2018-10-17T12:15:52.116Z,44.49
2018-10-17T12:16:52.063Z,45.19
2018-10-17T12:17:52.090Z,43.98
2018-10-17T12:18:52.057Z,43.34
2018-10-17T12:19:52.152Z,42.01
2018-10-17T12:20:52.036Z,42.29
2018-10-17T12:21:52.044Z,41.57
2018-10-17T12:22:51.997Z,41.65
2018-10-17T12:23:52.035Z,40.47
2018-10-17T12:24:51.999Z,39.54
2018-10-17T12:25:51.967Z,38.82
2018-10-17T12:26:51.968Z,38.04
2018-10-17T12:27:52.065Z,38.51
2018-10-17T12:28:52.094Z,38.10
2018-10-17T12:29:51.954Z,37.49
2018-10-17T12:30:51.920Z,37.59
2018-10-17T12:31:51.904Z,38.57
2018-10-17T12:32:51.911Z,37.49
2018-10-17T12:33:51.920Z,38.18
2018-10-17T12:34:51.898Z,37.90
2018-10-17T12:35:51.861Z,37.82
2018-10-17T12:36:51.865Z,38.61
2018-10-17T12:37:51.835Z,37.90
2018-10-17T12:38:51.878Z,38.10
2018-10-17T12:39:51.993Z,38.20
2018-10-17T12:40:51.946Z,38.12
2018-10-17T12:41:51.800Z,38.81
2018-10-17T12:42:51.815Z,37.43
2018-10-17T12:43:51.828Z,38.02
2018-10-17T12:44:51.806Z,37.92
2018-10-17T12:45:51.791Z,37.88
2018-10-17T12:46:51.800Z,37.78
2018-10-17T12:47:51.775Z,37.68
2018-10-17T12:48:51.781Z,37.78
2018-10-17T12:49:51.755Z,37.74
2018-10-17T12:50:51.704Z,38.53
2018-10-17T12:51:51.741Z,38.21